sensor_id;sensor_type;location;lat;lon;timestamp;temperature;humidity
25688;DHT22;17407;51.120;3.702;2023-11-19T00:01:11;14.60;99.90
25688;DHT22;17407;51.120;3.702;2023-11-19T00:03:36;14.60;99.90
25688;DHT22;17407;51.120;3.702;2023-11-19T00:06:02;14.60;99.90
25688;DHT22;17407;51.120;3.702;2023-11-19T00:08:30;14.70;99.90
25688;DHT22;17407;51.120;3.702;2023-11-19T00:10:55;14.60;99.90
25688;DHT22;17407;51.120;3.702;2023-11-19T00:13:21;14.70;99.90
25688;DHT22;17407;51.120;3.702;2023-11-19T00:15:46;14.60;99.90
25688;DHT22;17407;51.120;3.702;2023-11-19T00:18:13;14.60;99.90
25688;DHT22;17407;51.120;3.702;2023-11-19T00:20:39;14.60;99.90
25688;DHT22;17407;51.120;3.702;2023-11-19T00:23:05;14.50;99.90
25688;DHT22;17407;51.120;3.702;2023-11-19T00:25:31;14.40;99.90
25688;DHT22;17407;51.120;3.702;2023-11-19T00:27:56;14.40;99.90
25688;DHT22;17407;51.120;3.702;2023-11-19T00:30:22;14.50;99.90
25688;DHT22;17407;51.120;3.702;2023-11-19T00:32:48;14.50;99.90
25688;DHT22;17407;51.120;3.702;2023-11-19T00:35:14;14.50;99.90
25688;DHT22;17407;51.120;3.702;2023-11-19T00:37:40;14.30;99.90
25688;DHT22;17407;51.120;3.702;2023-11-19T00:40:06;14.40;99.90
25688;DHT22;17407;51.120;3.702;2023-11-19T00:42:32;14.40;99.90
25688;DHT22;17407;51.120;3.702;2023-11-19T00:44:58;14.40;99.90
25688;DHT22;17407;51.120;3.702;2023-11-19T00:47:24;14.40;99.90
25688;DHT22;17407;51.120;3.702;2023-11-19T00:49:49;14.50;99.90
25688;DHT22;17407;51.120;3.702;2023-11-19T00:52:18;14.50;99.90
25688;DHT22;17407;51.120;3.702;2023-11-19T00:54:44;14.50;99.90
25688;DHT22;17407;51.120;3.702;2023-11-19T00:57:10;14.50;99.90
25688;DHT22;17407;51.120;3.702;2023-11-19T00:59:35;14.30;99.90
25688;DHT22;17407;51.120;3.702;2023-11-19T01:02:01;14.30;99.90
25688;DHT22;17407;51.120;3.702;2023-11-19T01:04:35;14.30;99.90
25688;DHT22;17407;51.120;3.702;2023-11-19T01:07:05;14.30;99.90
25688;DHT22;17407;51.120;3.702;2023-11-19T01:09:31;14.20;99.90
25688;DHT22;17407;51.120;3.702;2023-11-19T01:11:58;14.20;99.90
25688;DHT22;17407;51.120;3.702;2023-11-19T01:14:26;14.20;99.90
25688;DHT22;17407;51.120;3.702;2023-11-19T01:16:52;14.30;99.90
25688;DHT22;17407;51.120;3.702;2023-11-19T01:19:19;14.20;99.90
25688;DHT22;17407;51.120;3.702;2023-11-19T01:21:44;14.10;99.90
25688;DHT22;17407;51.120;3.702;2023-11-19T01:24:10;14.10;99.90
25688;DHT22;17407;51.120;3.702;2023-11-19T01:26:38;14.10;99.90
25688;DHT22;17407;51.120;3.702;2023-11-19T01:29:04;14.00;99.90
25688;DHT22;17407;51.120;3.702;2023-11-19T01:31:30;14.10;99.90
25688;DHT22;17407;51.120;3.702;2023-11-19T01:33:59;14.20;99.90
25688;DHT22;17407;51.120;3.702;2023-11-19T01:36:25;14.20;99.90
25688;DHT22;17407;51.120;3.702;2023-11-19T01:38:50;14.10;99.90
25688;DHT22;17407;51.120;3.702;2023-11-19T01:41:16;14.10;99.90
25688;DHT22;17407;51.120;3.702;2023-11-19T01:43:41;14.10;99.90
25688;DHT22;17407;51.120;3.702;2023-11-19T01:46:07;14.00;99.90
25688;DHT22;17407;51.120;3.702;2023-11-19T01:48:39;14.00;99.90
25688;DHT22;17407;51.120;3.702;2023-11-19T01:51:06;14.00;99.90
25688;DHT22;17407;51.120;3.702;2023-11-19T01:53:34;14.10;99.90
25688;DHT22;17407;51.120;3.702;2023-11-19T01:56:00;14.20;99.90
25688;DHT22;17407;51.120;3.702;2023-11-19T01:58:26;14.20;99.90
25688;DHT22;17407;51.120;3.702;2023-11-19T02:00:52;14.10;99.90
25688;DHT22;17407;51.120;3.702;2023-11-19T02:03:19;14.10;99.90
25688;DHT22;17407;51.120;3.702;2023-11-19T02:05:45;14.10;99.90
25688;DHT22;17407;51.120;3.702;2023-11-19T02:08:14;14.00;99.90
25688;DHT22;17407;51.120;3.702;2023-11-19T02:10:40;14.10;99.90
25688;DHT22;17407;51.120;3.702;2023-11-19T02:13:05;14.00;99.90
25688;DHT22;17407;51.120;3.702;2023-11-19T02:15:35;13.90;99.90
25688;DHT22;17407;51.120;3.702;2023-11-19T02:18:27;13.90;99.90
25688;DHT22;17407;51.120;3.702;2023-11-19T02:20:58;13.90;99.90
25688;DHT22;17407;51.120;3.702;2023-11-19T02:23:26;13.80;99.90
25688;DHT22;17407;51.120;3.702;2023-11-19T02:26:09;13.70;99.90
25688;DHT22;17407;51.120;3.702;2023-11-19T02:28:36;13.80;99.90
25688;DHT22;17407;51.120;3.702;2023-11-19T02:31:02;13.90;99.90
25688;DHT22;17407;51.120;3.702;2023-11-19T02:33:30;13.80;99.90
25688;DHT22;17407;51.120;3.702;2023-11-19T02:35:56;13.70;99.90
25688;DHT22;17407;51.120;3.702;2023-11-19T02:38:22;13.70;99.90
25688;DHT22;17407;51.120;3.702;2023-11-19T02:40:48;13.60;99.90
25688;DHT22;17407;51.120;3.702;2023-11-19T02:43:14;13.70;99.90
25688;DHT22;17407;51.120;3.702;2023-11-19T02:45:40;13.70;99.90
25688;DHT22;17407;51.120;3.702;2023-11-19T02:48:06;13.70;99.90
25688;DHT22;17407;51.120;3.702;2023-11-19T02:50:32;13.60;99.90
25688;DHT22;17407;51.120;3.702;2023-11-19T02:52:57;13.60;99.90
25688;DHT22;17407;51.120;3.702;2023-11-19T02:55:24;13.50;99.90
25688;DHT22;17407;51.120;3.702;2023-11-19T02:57:50;13.50;99.90
25688;DHT22;17407;51.120;3.702;2023-11-19T03:00:19;13.50;99.90
25688;DHT22;17407;51.120;3.702;2023-11-19T03:02:49;13.50;99.90
25688;DHT22;17407;51.120;3.702;2023-11-19T03:05:24;13.50;99.90
25688;DHT22;17407;51.120;3.702;2023-11-19T03:07:49;13.50;99.90
25688;DHT22;17407;51.120;3.702;2023-11-19T03:10:15;13.50;99.90
25688;DHT22;17407;51.120;3.702;2023-11-19T03:12:41;13.40;99.90
25688;DHT22;17407;51.120;3.702;2023-11-19T03:15:08;13.40;99.90
25688;DHT22;17407;51.120;3.702;2023-11-19T03:17:41;13.40;99.90
25688;DHT22;17407;51.120;3.702;2023-11-19T03:20:09;13.40;99.90
25688;DHT22;17407;51.120;3.702;2023-11-19T03:22:39;13.30;99.90
25688;DHT22;17407;51.120;3.702;2023-11-19T03:25:07;13.20;99.90
25688;DHT22;17407;51.120;3.702;2023-11-19T03:27:42;13.30;99.90
25688;DHT22;17407;51.120;3.702;2023-11-19T03:30:09;13.40;99.90
25688;DHT22;17407;51.120;3.702;2023-11-19T03:32:35;13.40;99.90
25688;DHT22;17407;51.120;3.702;2023-11-19T03:35:04;13.40;99.90
25688;DHT22;17407;51.120;3.702;2023-11-19T03:37:32;13.40;99.90
25688;DHT22;17407;51.120;3.702;2023-11-19T03:39:58;13.50;99.90
25688;DHT22;17407;51.120;3.702;2023-11-19T03:42:28;13.40;99.90
25688;DHT22;17407;51.120;3.702;2023-11-19T03:44:56;13.40;99.90
25688;DHT22;17407;51.120;3.702;2023-11-19T03:47:22;13.40;99.90
25688;DHT22;17407;51.120;3.702;2023-11-19T03:49:49;13.40;99.90
25688;DHT22;17407;51.120;3.702;2023-11-19T03:52:15;13.40;99.90
25688;DHT22;17407;51.120;3.702;2023-11-19T03:54:41;13.30;99.90
25688;DHT22;17407;51.120;3.702;2023-11-19T03:57:06;13.30;99.90
25688;DHT22;17407;51.120;3.702;2023-11-19T03:59:32;13.20;99.90
25688;DHT22;17407;51.120;3.702;2023-11-19T04:01:59;13.20;99.90
25688;DHT22;17407;51.120;3.702;2023-11-19T04:04:26;13.10;99.90
25688;DHT22;17407;51.120;3.702;2023-11-19T04:06:53;13.10;99.90
25688;DHT22;17407;51.120;3.702;2023-11-19T04:09:19;13.10;99.90
25688;DHT22;17407;51.120;3.702;2023-11-19T04:11:44;13.10;99.90
25688;DHT22;17407;51.120;3.702;2023-11-19T04:14:15;13.10;99.90
25688;DHT22;17407;51.120;3.702;2023-11-19T04:16:46;13.10;99.90
25688;DHT22;17407;51.120;3.702;2023-11-19T04:19:12;13.00;99.90
25688;DHT22;17407;51.120;3.702;2023-11-19T04:21:40;12.90;99.90
25688;DHT22;17407;51.120;3.702;2023-11-19T04:24:07;12.70;99.90
25688;DHT22;17407;51.120;3.702;2023-11-19T04:26:32;12.70;99.90
25688;DHT22;17407;51.120;3.702;2023-11-19T04:28:58;12.80;99.90
25688;DHT22;17407;51.120;3.702;2023-11-19T04:31:31;12.80;99.90
25688;DHT22;17407;51.120;3.702;2023-11-19T04:33:57;12.80;99.90
25688;DHT22;17407;51.120;3.702;2023-11-19T04:36:22;12.70;99.90
25688;DHT22;17407;51.120;3.702;2023-11-19T04:38:50;12.70;99.90
25688;DHT22;17407;51.120;3.702;2023-11-19T04:41:16;12.70;99.90
25688;DHT22;17407;51.120;3.702;2023-11-19T04:43:41;12.70;99.90
25688;DHT22;17407;51.120;3.702;2023-11-19T04:46:09;12.60;99.90
25688;DHT22;17407;51.120;3.702;2023-11-19T04:48:34;12.60;99.90
25688;DHT22;17407;51.120;3.702;2023-11-19T04:51:00;12.70;99.90
25688;DHT22;17407;51.120;3.702;2023-11-19T04:53:26;12.60;99.90
25688;DHT22;17407;51.120;3.702;2023-11-19T04:55:51;12.60;99.90
25688;DHT22;17407;51.120;3.702;2023-11-19T04:58:17;12.60;99.90
25688;DHT22;17407;51.120;3.702;2023-11-19T05:00:43;12.60;99.90
25688;DHT22;17407;51.120;3.702;2023-11-19T05:03:08;12.60;99.90
25688;DHT22;17407;51.120;3.702;2023-11-19T05:05:34;12.50;99.90
25688;DHT22;17407;51.120;3.702;2023-11-19T05:08:00;12.50;99.90
25688;DHT22;17407;51.120;3.702;2023-11-19T05:10:26;12.50;99.90
25688;DHT22;17407;51.120;3.702;2023-11-19T05:12:52;12.50;99.90
25688;DHT22;17407;51.120;3.702;2023-11-19T05:15:18;12.50;99.90
25688;DHT22;17407;51.120;3.702;2023-11-19T05:17:43;12.50;99.90
25688;DHT22;17407;51.120;3.702;2023-11-19T05:20:10;12.40;99.90
25688;DHT22;17407;51.120;3.702;2023-11-19T05:22:42;12.40;99.90
25688;DHT22;17407;51.120;3.702;2023-11-19T05:25:08;12.20;99.90
25688;DHT22;17407;51.120;3.702;2023-11-19T05:27:35;12.30;99.90
25688;DHT22;17407;51.120;3.702;2023-11-19T05:30:02;12.40;99.90
25688;DHT22;17407;51.120;3.702;2023-11-19T05:32:27;12.50;99.90
25688;DHT22;17407;51.120;3.702;2023-11-19T05:34:53;12.40;99.90
25688;DHT22;17407;51.120;3.702;2023-11-19T05:37:19;12.40;99.90
25688;DHT22;17407;51.120;3.702;2023-11-19T05:39:45;12.40;99.90
25688;DHT22;17407;51.120;3.702;2023-11-19T05:42:11;12.30;99.90
25688;DHT22;17407;51.120;3.702;2023-11-19T05:44:36;12.40;99.90
25688;DHT22;17407;51.120;3.702;2023-11-19T05:47:03;12.30;99.90
25688;DHT22;17407;51.120;3.702;2023-11-19T05:49:29;12.30;99.90
25688;DHT22;17407;51.120;3.702;2023-11-19T05:51:55;12.40;99.90
25688;DHT22;17407;51.120;3.702;2023-11-19T05:54:21;12.30;99.90
25688;DHT22;17407;51.120;3.702;2023-11-19T05:56:48;12.30;99.90
25688;DHT22;17407;51.120;3.702;2023-11-19T05:59:14;12.30;99.90
25688;DHT22;17407;51.120;3.702;2023-11-19T06:01:43;12.40;99.90
25688;DHT22;17407;51.120;3.702;2023-11-19T06:04:09;12.40;99.90
25688;DHT22;17407;51.120;3.702;2023-11-19T06:06:36;12.30;99.90
25688;DHT22;17407;51.120;3.702;2023-11-19T06:09:02;12.20;99.90
25688;DHT22;17407;51.120;3.702;2023-11-19T06:11:28;12.20;99.90
25688;DHT22;17407;51.120;3.702;2023-11-19T06:13:54;12.20;99.90
25688;DHT22;17407;51.120;3.702;2023-11-19T06:16:20;12.20;99.90
25688;DHT22;17407;51.120;3.702;2023-11-19T06:18:45;12.20;99.90
25688;DHT22;17407;51.120;3.702;2023-11-19T06:21:12;12.10;99.90
25688;DHT22;17407;51.120;3.702;2023-11-19T06:23:37;12.10;99.90
25688;DHT22;17407;51.120;3.702;2023-11-19T06:26:03;12.10;99.90
25688;DHT22;17407;51.120;3.702;2023-11-19T06:28:31;12.10;99.90
25688;DHT22;17407;51.120;3.702;2023-11-19T06:30:56;12.10;99.90
25688;DHT22;17407;51.120;3.702;2023-11-19T06:33:24;12.10;99.90
25688;DHT22;17407;51.120;3.702;2023-11-19T06:35:50;12.00;99.90
25688;DHT22;17407;51.120;3.702;2023-11-19T06:38:15;12.10;99.90
25688;DHT22;17407;51.120;3.702;2023-11-19T06:40:41;12.20;99.90
25688;DHT22;17407;51.120;3.702;2023-11-19T06:43:07;12.20;99.90
25688;DHT22;17407;51.120;3.702;2023-11-19T06:45:34;12.10;99.90
25688;DHT22;17407;51.120;3.702;2023-11-19T06:48:02;12.10;99.90
25688;DHT22;17407;51.120;3.702;2023-11-19T06:50:29;12.00;99.90
25688;DHT22;17407;51.120;3.702;2023-11-19T06:52:55;12.00;99.90
25688;DHT22;17407;51.120;3.702;2023-11-19T06:55:20;12.00;99.90
25688;DHT22;17407;51.120;3.702;2023-11-19T06:57:46;11.90;99.90
25688;DHT22;17407;51.120;3.702;2023-11-19T07:00:12;11.90;99.90
25688;DHT22;17407;51.120;3.702;2023-11-19T07:02:38;11.90;99.90
25688;DHT22;17407;51.120;3.702;2023-11-19T07:05:05;12.00;99.90
25688;DHT22;17407;51.120;3.702;2023-11-19T07:07:31;12.00;99.90
25688;DHT22;17407;51.120;3.702;2023-11-19T07:09:58;12.00;99.90
25688;DHT22;17407;51.120;3.702;2023-11-19T07:12:24;12.10;99.90
25688;DHT22;17407;51.120;3.702;2023-11-19T07:14:52;12.10;99.90
25688;DHT22;17407;51.120;3.702;2023-11-19T07:17:18;12.10;99.90
25688;DHT22;17407;51.120;3.702;2023-11-19T07:19:46;12.00;99.90
25688;DHT22;17407;51.120;3.702;2023-11-19T07:22:11;12.10;99.90
25688;DHT22;17407;51.120;3.702;2023-11-19T07:24:39;12.00;99.90
25688;DHT22;17407;51.120;3.702;2023-11-19T07:27:06;12.00;99.90
25688;DHT22;17407;51.120;3.702;2023-11-19T07:29:32;12.00;99.90
25688;DHT22;17407;51.120;3.702;2023-11-19T07:31:57;12.10;99.90
25688;DHT22;17407;51.120;3.702;2023-11-19T07:34:24;12.10;99.90
25688;DHT22;17407;51.120;3.702;2023-11-19T07:36:50;12.20;99.90
25688;DHT22;17407;51.120;3.702;2023-11-19T07:39:16;12.20;99.90
25688;DHT22;17407;51.120;3.702;2023-11-19T07:41:41;12.20;99.90
25688;DHT22;17407;51.120;3.702;2023-11-19T07:44:07;12.10;99.90
25688;DHT22;17407;51.120;3.702;2023-11-19T07:46:32;12.30;99.90
25688;DHT22;17407;51.120;3.702;2023-11-19T07:48:58;12.40;99.90
25688;DHT22;17407;51.120;3.702;2023-11-19T07:51:24;12.30;99.90
25688;DHT22;17407;51.120;3.702;2023-11-19T07:53:50;12.20;99.90
25688;DHT22;17407;51.120;3.702;2023-11-19T07:56:15;12.40;99.90
25688;DHT22;17407;51.120;3.702;2023-11-19T07:58:41;12.40;99.90
25688;DHT22;17407;51.120;3.702;2023-11-19T08:01:07;12.30;99.90
25688;DHT22;17407;51.120;3.702;2023-11-19T08:03:33;12.30;99.90
25688;DHT22;17407;51.120;3.702;2023-11-19T08:06:01;12.50;99.90
25688;DHT22;17407;51.120;3.702;2023-11-19T08:08:27;12.50;99.90
25688;DHT22;17407;51.120;3.702;2023-11-19T08:10:55;12.50;99.90
25688;DHT22;17407;51.120;3.702;2023-11-19T08:13:23;12.50;99.90
25688;DHT22;17407;51.120;3.702;2023-11-19T08:15:49;12.60;99.90
25688;DHT22;17407;51.120;3.702;2023-11-19T08:18:14;12.60;99.90
25688;DHT22;17407;51.120;3.702;2023-11-19T08:20:40;12.70;99.90
25688;DHT22;17407;51.120;3.702;2023-11-19T08:23:06;12.80;99.90
25688;DHT22;17407;51.120;3.702;2023-11-19T08:25:33;12.70;99.90
25688;DHT22;17407;51.120;3.702;2023-11-19T08:28:01;12.80;99.90
25688;DHT22;17407;51.120;3.702;2023-11-19T08:30:29;12.90;99.90
25688;DHT22;17407;51.120;3.702;2023-11-19T08:32:55;12.90;99.90
25688;DHT22;17407;51.120;3.702;2023-11-19T08:35:20;12.90;99.90
25688;DHT22;17407;51.120;3.702;2023-11-19T08:37:46;12.90;99.90
25688;DHT22;17407;51.120;3.702;2023-11-19T08:40:12;13.00;99.90
25688;DHT22;17407;51.120;3.702;2023-11-19T08:42:41;13.10;99.90
25688;DHT22;17407;51.120;3.702;2023-11-19T08:45:07;13.10;99.90
25688;DHT22;17407;51.120;3.702;2023-11-19T08:47:36;13.10;99.90
25688;DHT22;17407;51.120;3.702;2023-11-19T08:50:01;13.10;99.90
25688;DHT22;17407;51.120;3.702;2023-11-19T08:52:29;13.30;99.90
25688;DHT22;17407;51.120;3.702;2023-11-19T08:54:55;13.30;99.90
25688;DHT22;17407;51.120;3.702;2023-11-19T08:57:21;13.40;99.90
25688;DHT22;17407;51.120;3.702;2023-11-19T08:59:47;13.50;99.90
25688;DHT22;17407;51.120;3.702;2023-11-19T09:02:12;13.60;99.90
25688;DHT22;17407;51.120;3.702;2023-11-19T09:04:38;13.60;99.90
25688;DHT22;17407;51.120;3.702;2023-11-19T09:07:04;13.60;99.90
25688;DHT22;17407;51.120;3.702;2023-11-19T09:09:29;13.70;99.90
25688;DHT22;17407;51.120;3.702;2023-11-19T09:11:55;13.60;99.90
25688;DHT22;17407;51.120;3.702;2023-11-19T09:14:21;13.60;99.90
25688;DHT22;17407;51.120;3.702;2023-11-19T09:16:51;13.60;99.90
25688;DHT22;17407;51.120;3.702;2023-11-19T09:19:17;13.60;99.90
25688;DHT22;17407;51.120;3.702;2023-11-19T09:21:43;13.60;99.90
25688;DHT22;17407;51.120;3.702;2023-11-19T09:24:09;13.70;99.90
25688;DHT22;17407;51.120;3.702;2023-11-19T09:26:34;13.60;99.90
25688;DHT22;17407;51.120;3.702;2023-11-19T09:29:02;13.60;99.90
25688;DHT22;17407;51.120;3.702;2023-11-19T09:31:27;13.60;99.90
25688;DHT22;17407;51.120;3.702;2023-11-19T09:33:53;13.80;99.90
25688;DHT22;17407;51.120;3.702;2023-11-19T09:36:19;14.00;99.90
25688;DHT22;17407;51.120;3.702;2023-11-19T09:38:45;14.30;99.90
25688;DHT22;17407;51.120;3.702;2023-11-19T09:41:11;14.40;99.90
25688;DHT22;17407;51.120;3.702;2023-11-19T09:43:42;14.50;99.90
25688;DHT22;17407;51.120;3.702;2023-11-19T09:46:13;14.60;99.90
25688;DHT22;17407;51.120;3.702;2023-11-19T09:48:39;14.60;99.90
25688;DHT22;17407;51.120;3.702;2023-11-19T09:51:10;14.60;99.90
25688;DHT22;17407;51.120;3.702;2023-11-19T09:53:36;14.50;99.90
25688;DHT22;17407;51.120;3.702;2023-11-19T09:56:06;14.40;99.90
25688;DHT22;17407;51.120;3.702;2023-11-19T09:58:33;14.40;99.90
25688;DHT22;17407;51.120;3.702;2023-11-19T10:01:00;14.20;99.90
25688;DHT22;17407;51.120;3.702;2023-11-19T10:03:35;14.20;99.90
25688;DHT22;17407;51.120;3.702;2023-11-19T10:06:04;14.30;99.90
25688;DHT22;17407;51.120;3.702;2023-11-19T10:08:30;14.20;99.90
25688;DHT22;17407;51.120;3.702;2023-11-19T10:10:55;14.10;99.90
25688;DHT22;17407;51.120;3.702;2023-11-19T10:13:26;14.10;99.90
25688;DHT22;17407;51.120;3.702;2023-11-19T10:15:53;13.90;99.90
25688;DHT22;17407;51.120;3.702;2023-11-19T10:18:18;14.00;99.90
25688;DHT22;17407;51.120;3.702;2023-11-19T10:20:49;14.10;99.90
25688;DHT22;17407;51.120;3.702;2023-11-19T10:23:14;14.20;99.90
25688;DHT22;17407;51.120;3.702;2023-11-19T10:25:40;14.30;99.90
25688;DHT22;17407;51.120;3.702;2023-11-19T10:28:06;14.30;99.90
25688;DHT22;17407;51.120;3.702;2023-11-19T10:30:32;14.30;99.90
25688;DHT22;17407;51.120;3.702;2023-11-19T10:35:57;14.30;99.90
25688;DHT22;17407;51.120;3.702;2023-11-19T10:38:23;14.30;99.90
25688;DHT22;17407;51.120;3.702;2023-11-19T10:40:50;14.20;99.90
25688;DHT22;17407;51.120;3.702;2023-11-19T10:43:17;14.10;99.90
25688;DHT22;17407;51.120;3.702;2023-11-19T10:45:43;14.20;99.90
25688;DHT22;17407;51.120;3.702;2023-11-19T10:48:09;14.30;99.90
25688;DHT22;17407;51.120;3.702;2023-11-19T10:50:40;14.60;99.90
25688;DHT22;17407;51.120;3.702;2023-11-19T10:53:07;14.70;99.90
25688;DHT22;17407;51.120;3.702;2023-11-19T10:55:35;14.80;99.90
25688;DHT22;17407;51.120;3.702;2023-11-19T10:58:03;15.00;99.90
25688;DHT22;17407;51.120;3.702;2023-11-19T11:00:30;15.20;99.90
25688;DHT22;17407;51.120;3.702;2023-11-19T11:03:02;15.20;99.90
25688;DHT22;17407;51.120;3.702;2023-11-19T11:05:51;15.30;99.90
25688;DHT22;17407;51.120;3.702;2023-11-19T11:39:14;14.60;99.90
25688;DHT22;17407;51.120;3.702;2023-11-19T11:41:41;14.50;99.90
25688;DHT22;17407;51.120;3.702;2023-11-19T11:44:07;14.50;99.90
25688;DHT22;17407;51.120;3.702;2023-11-19T11:49:06;14.20;99.90
25688;DHT22;17407;51.120;3.702;2023-11-19T11:57:08;14.00;99.90
25688;DHT22;17407;51.120;3.702;2023-11-19T12:02:12;14.30;99.90
25688;DHT22;17407;51.120;3.702;2023-11-19T12:04:39;14.60;99.90
25688;DHT22;17407;51.120;3.702;2023-11-19T12:07:12;15.10;99.90
25688;DHT22;17407;51.120;3.702;2023-11-19T12:09:40;15.80;99.90
25688;DHT22;17407;51.120;3.702;2023-11-19T12:12:23;16.90;99.90
25688;DHT22;17407;51.120;3.702;2023-11-19T12:20:04;19.10;99.90
25688;DHT22;17407;51.120;3.702;2023-11-19T12:22:31;18.70;99.90
25688;DHT22;17407;51.120;3.702;2023-11-19T12:24:58;18.10;99.90
25688;DHT22;17407;51.120;3.702;2023-11-19T12:27:24;17.60;99.90
25688;DHT22;17407;51.120;3.702;2023-11-19T12:29:50;17.20;99.90
25688;DHT22;17407;51.120;3.702;2023-11-19T12:32:16;17.00;99.90
25688;DHT22;17407;51.120;3.702;2023-11-19T12:34:41;16.80;99.90
25688;DHT22;17407;51.120;3.702;2023-11-19T12:37:07;16.50;99.90
25688;DHT22;17407;51.120;3.702;2023-11-19T12:39:35;16.10;99.90
25688;DHT22;17407;51.120;3.702;2023-11-19T12:42:01;15.90;99.90
25688;DHT22;17407;51.120;3.702;2023-11-19T12:44:27;15.60;99.90
25688;DHT22;17407;51.120;3.702;2023-11-19T12:47:06;15.20;99.90
25688;DHT22;17407;51.120;3.702;2023-11-19T12:49:35;15.00;99.90
25688;DHT22;17407;51.120;3.702;2023-11-19T12:52:01;14.80;99.90
25688;DHT22;17407;51.120;3.702;2023-11-19T12:56:59;16.30;99.90
25688;DHT22;17407;51.120;3.702;2023-11-19T12:59:25;18.00;99.90
25688;DHT22;17407;51.120;3.702;2023-11-19T13:01:59;19.60;99.90
25688;DHT22;17407;51.120;3.702;2023-11-19T13:04:29;20.80;99.90
25688;DHT22;17407;51.120;3.702;2023-11-19T13:06:59;21.10;99.90
25688;DHT22;17407;51.120;3.702;2023-11-19T13:09:26;21.80;99.90
25688;DHT22;17407;51.120;3.702;2023-11-19T13:11:53;22.10;99.90
25688;DHT22;17407;51.120;3.702;2023-11-19T13:14:20;21.90;99.90
25688;DHT22;17407;51.120;3.702;2023-11-19T13:16:46;21.20;99.90
25688;DHT22;17407;51.120;3.702;2023-11-19T13:19:17;20.10;99.90
25688;DHT22;17407;51.120;3.702;2023-11-19T13:21:45;19.20;99.90
25688;DHT22;17407;51.120;3.702;2023-11-19T13:24:13;18.50;99.90
25688;DHT22;17407;51.120;3.702;2023-11-19T13:26:39;17.90;99.90
25688;DHT22;17407;51.120;3.702;2023-11-19T13:29:04;17.40;99.90
25688;DHT22;17407;51.120;3.702;2023-11-19T13:31:30;17.00;99.90
25688;DHT22;17407;51.120;3.702;2023-11-19T13:33:56;16.50;99.90
25688;DHT22;17407;51.120;3.702;2023-11-19T13:36:24;16.30;99.90
25688;DHT22;17407;51.120;3.702;2023-11-19T13:38:50;16.20;99.90
25688;DHT22;17407;51.120;3.702;2023-11-19T13:41:16;15.90;99.90
25688;DHT22;17407;51.120;3.702;2023-11-19T13:43:42;15.40;99.90
25688;DHT22;17407;51.120;3.702;2023-11-19T13:46:08;15.10;99.90
25688;DHT22;17407;51.120;3.702;2023-11-19T13:48:37;14.80;99.90
25688;DHT22;17407;51.120;3.702;2023-11-19T13:51:02;14.60;99.90
25688;DHT22;17407;51.120;3.702;2023-11-19T13:53:28;14.60;99.90
25688;DHT22;17407;51.120;3.702;2023-11-19T13:55:54;14.50;99.90
25688;DHT22;17407;51.120;3.702;2023-11-19T13:58:19;14.30;99.90
25688;DHT22;17407;51.120;3.702;2023-11-19T14:00:45;14.20;99.90
25688;DHT22;17407;51.120;3.702;2023-11-19T14:03:11;14.20;99.90
25688;DHT22;17407;51.120;3.702;2023-11-19T14:05:37;14.30;99.90
25688;DHT22;17407;51.120;3.702;2023-11-19T14:08:04;14.50;99.90
25688;DHT22;17407;51.120;3.702;2023-11-19T14:10:39;14.70;99.90
25688;DHT22;17407;51.120;3.702;2023-11-19T14:13:08;14.80;99.90
25688;DHT22;17407;51.120;3.702;2023-11-19T14:15:34;14.80;99.90
25688;DHT22;17407;51.120;3.702;2023-11-19T14:18:00;14.70;99.90
25688;DHT22;17407;51.120;3.702;2023-11-19T14:20:26;14.60;99.90
25688;DHT22;17407;51.120;3.702;2023-11-19T14:22:52;14.40;99.90
25688;DHT22;17407;51.120;3.702;2023-11-19T14:25:18;14.30;99.90
25688;DHT22;17407;51.120;3.702;2023-11-19T14:27:44;14.00;99.90
25688;DHT22;17407;51.120;3.702;2023-11-19T14:30:12;13.90;99.90
25688;DHT22;17407;51.120;3.702;2023-11-19T14:32:42;13.90;99.90
25688;DHT22;17407;51.120;3.702;2023-11-19T14:35:09;13.90;99.90
25688;DHT22;17407;51.120;3.702;2023-11-19T14:37:35;13.90;99.90
25688;DHT22;17407;51.120;3.702;2023-11-19T14:40:01;13.80;99.90
25688;DHT22;17407;51.120;3.702;2023-11-19T14:42:30;13.80;99.90
25688;DHT22;17407;51.120;3.702;2023-11-19T14:44:55;13.70;99.90
25688;DHT22;17407;51.120;3.702;2023-11-19T14:47:21;13.70;99.90
25688;DHT22;17407;51.120;3.702;2023-11-19T14:49:48;13.60;99.90
25688;DHT22;17407;51.120;3.702;2023-11-19T14:52:14;13.60;99.90
25688;DHT22;17407;51.120;3.702;2023-11-19T14:54:39;13.60;99.90
25688;DHT22;17407;51.120;3.702;2023-11-19T14:57:06;13.70;99.90
25688;DHT22;17407;51.120;3.702;2023-11-19T14:59:34;13.70;99.90
25688;DHT22;17407;51.120;3.702;2023-11-19T15:02:00;13.70;99.90
25688;DHT22;17407;51.120;3.702;2023-11-19T15:04:27;13.70;99.90
25688;DHT22;17407;51.120;3.702;2023-11-19T15:06:52;13.70;99.90
25688;DHT22;17407;51.120;3.702;2023-11-19T15:09:19;13.60;99.90
25688;DHT22;17407;51.120;3.702;2023-11-19T15:11:46;13.50;99.90
25688;DHT22;17407;51.120;3.702;2023-11-19T15:14:13;13.50;99.90
25688;DHT22;17407;51.120;3.702;2023-11-19T15:16:42;13.30;99.90
25688;DHT22;17407;51.120;3.702;2023-11-19T15:19:08;13.30;99.90
25688;DHT22;17407;51.120;3.702;2023-11-19T15:21:34;13.30;99.90
25688;DHT22;17407;51.120;3.702;2023-11-19T15:24:00;13.30;99.90
25688;DHT22;17407;51.120;3.702;2023-11-19T15:26:30;13.20;99.90
25688;DHT22;17407;51.120;3.702;2023-11-19T15:28:55;13.20;99.90
25688;DHT22;17407;51.120;3.702;2023-11-19T15:31:23;13.20;99.90
25688;DHT22;17407;51.120;3.702;2023-11-19T15:33:48;13.10;99.90
25688;DHT22;17407;51.120;3.702;2023-11-19T15:36:14;13.10;99.90
25688;DHT22;17407;51.120;3.702;2023-11-19T15:38:40;13.10;99.90
25688;DHT22;17407;51.120;3.702;2023-11-19T15:41:06;12.90;99.90
25688;DHT22;17407;51.120;3.702;2023-11-19T15:43:33;13.00;99.90
25688;DHT22;17407;51.120;3.702;2023-11-19T15:45:59;12.90;99.90
25688;DHT22;17407;51.120;3.702;2023-11-19T15:48:24;12.80;99.90
25688;DHT22;17407;51.120;3.702;2023-11-19T15:50:51;12.90;99.90
25688;DHT22;17407;51.120;3.702;2023-11-19T15:53:17;13.00;99.90
25688;DHT22;17407;51.120;3.702;2023-11-19T15:55:44;13.00;99.90
25688;DHT22;17407;51.120;3.702;2023-11-19T15:58:10;13.00;99.90
25688;DHT22;17407;51.120;3.702;2023-11-19T16:00:36;12.90;99.90
25688;DHT22;17407;51.120;3.702;2023-11-19T16:03:02;12.90;99.90
25688;DHT22;17407;51.120;3.702;2023-11-19T16:05:28;12.90;99.90
25688;DHT22;17407;51.120;3.702;2023-11-19T16:07:54;12.90;99.90
25688;DHT22;17407;51.120;3.702;2023-11-19T16:10:19;13.00;99.90
25688;DHT22;17407;51.120;3.702;2023-11-19T16:12:46;13.00;99.90
25688;DHT22;17407;51.120;3.702;2023-11-19T16:15:12;13.00;99.90
25688;DHT22;17407;51.120;3.702;2023-11-19T16:17:43;13.00;99.90
25688;DHT22;17407;51.120;3.702;2023-11-19T16:20:10;12.90;99.90